Time;durP1;ratioP1;P1;durP2;ratioP2;P2;SDS_P1;SDS_P2;PMS_P1;PMS_P2;Temp;Humidity;BMP_temperature;BMP_pressure;BME280_temperature;BME280_humidity;BME280_pressure;Samples;Min_cycle;Max_cycle;Signal;HPM_P1;HPM_P2
2021/10/02 00:45:49;;;;;;;;;9.25;7.00;;;;;14.81;74.31;101301.47;5079078;28;45345;-80
2021/10/02 00:48:15;;;;;;;;;8.00;5.50;;;;;14.83;74.67;101294.31;5079016;28;45428;-80
2021/10/02 00:50:40;;;;;;;;;8.00;8.00;;;;;14.86;74.50;101309.22;5078510;28;45481;-80
2021/10/02 00:53:06;;;;;;;;;9.25;8.00;;;;;14.85;74.96;101289.84;5060878;28;46847;-80
2021/10/02 00:55:31;;;;;;;;;5.25;5.25;;;;;14.87;74.91;101294.19;5078748;27;45246;-80
2021/10/02 00:57:57;;;;;;;;;6.25;6.25;;;;;14.87;75.15;101284.47;5079124;28;45447;-80
2021/10/02 01:00:23;;;;;;;;;8.25;5.75;;;;;14.92;74.80;101284.28;5078169;27;45638;-80
2021/10/02 01:02:48;;;;;;;;;7.50;7.50;;;;;14.95;74.80;101289.44;5079151;28;46612;-80
2021/10/02 01:05:45;;;;;;;;;7.25;6.25;;;;;14.93;74.96;101280.72;5079126;27;45230;-79
2021/10/02 01:08:32;;;;;;;;;5.25;5.25;;;;;14.94;75.05;101283.28;5078710;27;45239;-80
2021/10/02 01:11:29;;;;;;;;;5.00;5.00;;;;;14.94;74.90;101285.94;5078827;28;45476;-79
2021/10/02 01:14:35;;;;;;;;;5.75;5.00;;;;;15.01;74.77;101280.38;5068734;28;45401;-80
2021/10/02 01:17:07;;;;;;;;;8.00;6.50;;;;;15.04;74.90;101289.03;5081138;28;45812;-79
2021/10/02 01:19:57;;;;;;;;;6.50;6.25;;;;;15.03;74.72;101284.69;5082273;28;45456;-79
2021/10/02 01:22:37;;;;;;;;;10.00;6.00;;;;;15.10;74.87;101292.34;5082215;27;46167;-79
2021/10/02 01:25:42;;;;;;;;;7.75;6.00;;;;;15.11;74.91;101296.72;5082216;27;46339;-78
2021/10/02 01:28:12;;;;;;;;;5.75;5.75;;;;;15.07;74.78;101285.41;5081758;28;45428;-78
2021/10/02 01:33:42;;;;;;;;;6.50;6.50;;;;;15.09;74.62;101266.81;5081606;27;45226;-78
2021/10/02 01:47:15;;;;;;;;;8.00;8.00;;;;;15.02;74.40;101251.19;5081198;28;45495;-80
2021/10/02 01:49:51;;;;;;;;;10.50;8.25;;;;;15.03;74.52;101252.94;5082092;27;45555;-80
2021/10/02 01:52:22;;;;;;;;;8.75;7.25;;;;;15.02;74.66;101248.53;5062429;28;45435;-80
2021/10/02 01:54:49;;;;;;;;;8.50;7.50;;;;;15.05;74.62;101243.13;5081819;27;45379;-80
2021/10/02 01:57:15;;;;;;;;;7.25;7.25;;;;;15.01;74.52;101230.09;5081552;28;46358;-81
2021/10/02 01:59:42;;;;;;;;;7.50;5.50;;;;;15.02;74.67;101229.16;5081593;27;45651;-81
2021/10/02 02:02:09;;;;;;;;;5.25;5.00;;;;;15.04;74.63;101244.03;5081845;28;45486;-80
2021/10/02 02:04:38;;;;;;;;;8.50;7.25;;;;;15.02;74.71;101235.31;5081689;28;45510;-80
2021/10/02 02:07:05;;;;;;;;;5.00;5.00;;;;;14.96;74.70;101225.84;5081250;28;45412;-80
2021/10/02 02:09:38;;;;;;;;;7.75;5.50;;;;;14.99;74.63;101224.84;5081541;27;45377;-80
2021/10/02 02:12:12;;;;;;;;;8.00;5.75;;;;;14.96;74.80;101214.41;5081847;28;45369;-80
2021/10/02 02:14:40;;;;;;;;;8.00;8.00;;;;;14.96;74.74;101219.72;5080374;27;45387;-80
2021/10/02 02:17:07;;;;;;;;;7.00;7.00;;;;;14.95;74.93;101221.50;5080786;28;45633;-80
2021/10/02 02:19:34;;;;;;;;;7.00;6.75;;;;;14.94;74.64;101224.19;5081589;28;45268;-80
2021/10/02 02:22:02;;;;;;;;;6.50;6.50;;;;;14.94;74.66;101217.13;5081242;27;45228;-81
2021/10/02 02:24:27;;;;;;;;;5.50;4.75;;;;;14.91;74.68;101216.41;5080450;28;45301;-80
2021/10/02 02:26:53;;;;;;;;;6.75;6.25;;;;;14.91;74.87;101224.34;5080263;28;45484;-82
2021/10/02 02:29:19;;;;;;;;;8.00;5.00;;;;;14.96;74.97;101231.13;5081008;27;45369;-82
2021/10/02 02:31:46;;;;;;;;;7.00;6.25;;;;;14.94;74.87;101208.31;5081634;28;45349;-82
2021/10/02 02:34:12;;;;;;;;;7.75;7.50;;;;;14.91;74.95;101203.16;5080971;28;45567;-82
2021/10/02 02:36:38;;;;;;;;;7.75;7.75;;;;;14.92;74.79;101213.69;5080920;28;46742;-81
2021/10/02 02:39:04;;;;;;;;;10.25;7.50;;;;;14.92;75.09;101203.09;5081152;28;45454;-81
2021/10/02 02:41:29;;;;;;;;;7.00;6.00;;;;;14.92;75.09;101194.28;5087665;27;45290;-81
2021/10/02 02:43:55;;;;;;;;;7.50;7.50;;;;;14.95;74.85;101191.50;5087910;27;45378;-80
2021/10/02 02:46:29;;;;;;;;;8.75;7.00;;;;;14.94;74.95;101181.84;5080867;27;46197;-80
2021/10/02 02:49:04;;;;;;;;;6.75;5.25;;;;;15.00;75.26;101183.38;5080300;27;45595;-82
2021/10/02 02:51:46;;;;;;;;;9.25;8.00;;;;;14.97;75.43;101200.25;5081132;27;45167;-82
2021/10/02 02:54:36;;;;;;;;;12.00;8.50;;;;;14.98;75.26;101201.09;5080428;28;45310;-82
2021/10/02 02:57:25;;;;;;;;;6.25;6.25;;;;;15.04;75.53;101196.38;5062537;28;46273;-80
2021/10/02 03:00:17;;;;;;;;;9.00;9.00;;;;;15.05;75.51;101184.88;5080078;28;45646;-79
2021/10/02 03:02:47;;;;;;;;;7.50;7.50;;;;;15.02;75.36;101169.13;5076617;27;45386;-81
2021/10/02 03:05:16;;;;;;;;;6.25;6.25;;;;;15.05;75.36;101162.84;5068323;28;45371;-80
2021/10/02 03:07:58;;;;;;;;;5.50;5.50;;;;;15.04;75.55;101161.97;5080461;28;45541;-84
2021/10/02 03:10:24;;;;;;;;;6.50;6.50;;;;;15.05;75.35;101168.13;5070614;28;45488;-85
2021/10/02 03:12:53;;;;;;;;;9.25;7.50;;;;;15.04;75.43;101163.75;5080208;28;45215;-83
2021/10/02 03:15:20;;;;;;;;;8.75;6.25;;;;;15.07;75.30;101164.50;5079711;28;45390;-85
2021/10/02 03:17:50;;;;;;;;;9.50;8.75;;;;;15.10;75.13;101158.19;5080031;27;46751;-86
2021/10/02 03:20:17;;;;;;;;;10.25;9.25;;;;;15.10;75.25;101138.81;5080452;28;45559;-83
2021/10/02 03:22:45;;;;;;;;;12.00;9.75;;;;;15.11;75.20;101143.19;5080565;27;45508;-83
2021/10/02 03:25:12;;;;;;;;;9.75;9.25;;;;;15.07;75.20;101153.91;5080201;27;45477;-83
2021/10/02 03:27:38;;;;;;;;;12.00;8.75;;;;;15.08;75.22;101160.06;5080099;28;45439;-82
2021/10/02 03:30:06;;;;;;;;;10.25;8.00;;;;;15.10;75.46;101173.22;5080071;27;45314;-80
2021/10/02 03:32:31;;;;;;;;;11.00;8.50;;;;;15.15;75.42;101172.09;5080424;28;45272;-79
2021/10/02 03:34:57;;;;;;;;;10.75;8.50;;;;;15.14;75.30;101153.59;5079897;28;45574;-80
2021/10/02 03:37:23;;;;;;;;;8.75;8.00;;;;;15.21;75.34;101133.03;5079290;28;45383;-80
2021/10/02 03:39:49;;;;;;;;;8.75;8.00;;;;;15.15;75.46;101115.63;5080257;28;45639;-79
2021/10/02 03:42:22;;;;;;;;;9.00;8.50;;;;;15.18;75.31;101115.50;5080409;27;45459;-78
2021/10/02 03:44:52;;;;;;;;;13.25;8.25;;;;;15.25;75.39;101113.41;5079751;28;45402;-78
2021/10/02 03:47:19;;;;;;;;;8.00;8.00;;;;;15.23;75.30;101121.44;5079798;28;45362;-79
2021/10/02 03:49:46;;;;;;;;;8.25;8.00;;;;;15.23;74.97;101115.28;5080213;28;45625;-79
2021/10/02 03:52:13;;;;;;;;;10.50;8.75;;;;;15.24;75.30;101112.53;5080393;28;45469;-78
2021/10/02 03:54:40;;;;;;;;;9.25;9.25;;;;;15.28;75.48;101106.16;5079543;28;45491;-79
2021/10/02 03:57:06;;;;;;;;;10.50;10.00;;;;;15.30;75.51;101103.47;5079689;28;45415;-79
2021/10/02 03:59:33;;;;;;;;;7.75;7.75;;;;;15.36;75.32;101099.69;5079701;27;45384;-79
2021/10/02 04:01:58;;;;;;;;;6.25;5.75;;;;;15.35;75.33;101090.88;5080255;28;45190;-79
2021/10/02 04:04:23;;;;;;;;;7.75;7.50;;;;;15.36;75.02;101097.03;5079777;28;45266;-79
2021/10/02 04:06:50;;;;;;;;;10.75;8.00;;;;;15.37;75.21;101104.03;5079053;27;46372;-78
2021/10/02 04:09:16;;;;;;;;;7.00;7.00;;;;;15.41;75.22;101108.22;5079650;27;45282;-77
2021/10/02 04:11:41;;;;;;;;;10.25;6.50;;;;;15.37;75.25;101091.66;5080138;28;45255;-77
2021/10/02 04:14:07;;;;;;;;;7.75;7.25;;;;;15.39;75.23;101083.63;5079176;28;45384;-79
2021/10/02 04:16:32;;;;;;;;;10.00;10.00;;;;;15.39;75.23;101083.63;5078730;28;45354;-80
2021/10/02 04:18:59;;;;;;;;;10.25;8.50;;;;;15.38;75.25;101080.09;5079684;28;45160;-79
2021/10/02 04:21:24;;;;;;;;;10.00;8.25;;;;;15.36;74.84;101073.19;5079581;28;45247;-78
2021/10/02 04:23:51;;;;;;;;;9.50;8.75;;;;;15.36;75.15;101074.03;5060958;28;45469;-78
2021/10/02 04:26:17;;;;;;;;;10.25;8.00;;;;;15.41;75.27;101100.28;5079546;28;45432;-78
2021/10/02 06:13:42;;;;;;;;;7.50;5.00;;;;;15.30;75.97;101047.84;5465679;22;45959;-78
2021/10/02 06:16:07;;;;;;;;;5.25;4.00;;;;;15.34;75.56;101048.56;5057429;28;46190;-78
2021/10/02 06:18:32;;;;;;;;;4.25;3.75;;;;;15.33;75.30;101041.56;5051824;28;45254;-78
2021/10/02 06:20:58;;;;;;;;;5.00;3.25;;;;;15.39;75.13;101043.88;5060220;28;45251;-79
2021/10/02 06:23:26;;;;;;;;;3.75;3.25;;;;;15.38;74.97;101047.50;5061484;28;45361;-79
2021/10/02 06:25:52;;;;;;;;;5.00;3.00;;;;;15.36;75.07;101046.72;5058612;28;45323;-79
2021/10/02 06:28:17;;;;;;;;;7.25;3.00;;;;;15.40;74.88;101048.25;5057395;28;45374;-79
2021/10/02 06:30:42;;;;;;;;;3.00;3.00;;;;;15.39;74.89;101046.53;5059313;28;45558;-79
2021/10/02 06:33:08;;;;;;;;;3.50;3.00;;;;;15.41;74.77;101047.31;5047975;28;45483;-80
2021/10/02 06:35:33;;;;;;;;;3.75;3.75;;;;;15.42;74.49;101041.09;5056959;28;46478;-80
2021/10/02 06:37:59;;;;;;;;;2.75;2.75;;;;;15.43;74.39;101026.06;5052806;28;45465;-80
2021/10/02 06:40:25;;;;;;;;;4.50;4.00;;;;;15.46;74.34;101025.94;5055762;28;45450;-81
2021/10/02 06:42:51;;;;;;;;;4.75;4.25;;;;;15.43;74.11;101026.06;5059892;28;45420;-78
2021/10/02 06:45:17;;;;;;;;;5.00;4.00;;;;;15.44;74.10;101036.59;5056209;28;45275;-78
2021/10/02 06:47:42;;;;;;;;;3.25;3.25;;;;;15.42;73.77;101046.41;5067841;28;45452;-78
2021/10/02 06:50:08;;;;;;;;;1.75;1.75;;;;;15.42;73.60;101035.81;5056639;28;45246;-78
2021/10/02 06:52:33;;;;;;;;;5.00;2.75;;;;;15.44;73.74;101033.94;5060918;28;45507;-80
2021/10/02 06:54:59;;;;;;;;;2.25;2.25;;;;;15.46;73.81;101040.00;5057368;28;45571;-80
2021/10/02 06:57:24;;;;;;;;;3.25;2.50;;;;;15.46;73.68;101037.34;5053178;28;45220;-79
2021/10/02 06:59:50;;;;;;;;;3.00;3.00;;;;;15.50;73.27;101049.53;5060589;28;45153;-83
2021/10/02 07:02:16;;;;;;;;;2.50;2.50;;;;;15.48;73.53;101039.94;5060612;28;45314;-88
2021/10/02 07:04:42;;;;;;;;;2.00;2.00;;;;;15.50;73.65;101044.25;5038740;28;47257;-88
2021/10/02 07:07:08;;;;;;;;;5.00;2.00;;;;;15.52;73.33;101047.66;5029848;28;45565;-88
2021/10/02 07:09:34;;;;;;;;;2.75;2.50;;;;;15.50;73.14;101049.53;5039466;28;45342;-87
2021/10/02 07:12:00;;;;;;;;;5.50;3.00;;;;;15.56;72.91;101044.84;5055003;28;45504;-87
2021/10/02 07:14:25;;;;;;;;;2.50;2.50;;;;;15.54;72.95;101039.63;5049884;28;45383;-87
2021/10/02 07:16:50;;;;;;;;;6.50;4.50;;;;;15.54;72.84;101039.63;5045035;28;45391;-88
2021/10/02 07:19:17;;;;;;;;;3.50;2.50;;;;;15.60;72.68;101049.09;5058937;28;45424;-88
2021/10/02 07:21:43;;;;;;;;;5.25;3.00;;;;;15.59;72.83;101047.34;5038592;28;46178;-89
2021/10/02 07:24:09;;;;;;;;;2.75;2.75;;;;;15.63;72.35;101054.25;5055233;28;45457;-89
2021/10/02 07:26:35;;;;;;;;;6.75;2.00;;;;;15.63;72.33;101059.53;5055431;28;46057;-90
2021/10/02 07:29:00;;;;;;;;;3.50;3.00;;;;;15.64;72.34;101058.59;5051757;28;45283;-91
2021/10/02 07:31:26;;;;;;;;;4.50;3.00;;;;;15.68;71.92;101046.88;5044919;28;46994;-88
2021/10/02 07:33:51;;;;;;;;;2.50;2.50;;;;;15.74;72.26;101041.31;5054632;28;46430;-89
2021/10/02 07:36:17;;;;;;;;;3.75;3.25;;;;;15.75;72.37;101031.56;5046964;28;45584;-88
2021/10/02 07:38:43;;;;;;;;;2.00;2.00;;;;;15.77;72.18;101008.50;5060400;28;45311;-90
2021/10/02 07:41:12;;;;;;;;;2.00;1.50;;;;;15.85;71.80;101010.75;5055713;28;45532;-88
2021/10/02 07:43:40;;;;;;;;;3.75;2.75;;;;;15.91;71.39;101009.56;5059650;28;46632;-88
2021/10/02 07:46:09;;;;;;;;;4.00;2.75;;;;;15.93;71.26;101002.38;5041412;28;45517;-89
2021/10/02 07:48:34;;;;;;;;;3.00;3.00;;;;;15.97;71.00;100999.53;5056088;28;45413;-80
2021/10/02 07:51:00;;;;;;;;;1.75;1.75;;;;;16.00;70.91;100981.75;5056997;28;45469;-82
2021/10/02 07:53:31;;;;;;;;;4.25;2.00;;;;;16.14;70.55;100996.94;5059677;28;46181;-82
2021/10/02 07:56:01;;;;;;;;;2.25;2.00;;;;;16.22;70.12;100984.16;5053767;28;45240;-82
2021/10/02 07:58:26;;;;;;;;;1.00;1.00;;;;;16.27;69.77;100975.94;5039466;28;45511;-82
2021/10/02 08:00:54;;;;;;;;;1.50;1.50;;;;;16.39;69.25;100987.69;5041482;28;45882;-82
2021/10/02 08:03:20;;;;;;;;;2.75;1.75;;;;;16.44;69.20;100974.16;5038146;28;47932;-82
2021/10/02 08:05:46;;;;;;;;;2.50;2.00;;;;;16.52;68.67;100985.22;5053314;28;45502;-82
2021/10/02 08:08:16;;;;;;;;;1.25;1.25;;;;;16.59;68.45;100986.63;5059735;28;45490;-82
2021/10/02 08:10:41;;;;;;;;;1.75;1.75;;;;;16.65;68.28;100986.25;5059404;28;45277;-82
2021/10/02 08:13:07;;;;;;;;;4.75;3.00;;;;;16.72;68.30;100988.56;5037700;28;47509;-83
2021/10/02 08:15:33;;;;;;;;;2.50;2.00;;;;;16.74;67.86;100987.53;5051887;28;45269;-83
2021/10/02 08:18:04;;;;;;;;;2.75;2.00;;;;;16.81;67.71;100987.22;5059737;28;45272;-82
2021/10/02 08:20:31;;;;;;;;;3.75;2.00;;;;;16.80;67.48;100981.03;5056844;28;45239;-82
2021/10/02 08:22:58;;;;;;;;;3.50;3.00;;;;;16.80;67.60;100975.75;5041419;28;46607;-80
2021/10/02 08:25:25;;;;;;;;;4.00;4.00;;;;;16.80;67.32;100969.56;5050665;28;45391;-81
2021/10/02 08:27:51;;;;;;;;;1.50;1.50;;;;;16.79;66.87;100946.63;5062660;28;45282;-84
2021/10/02 08:30:18;;;;;;;;;4.00;3.00;;;;;16.81;67.36;100948.25;5046812;28;45454;-84
2021/10/02 08:32:44;;;;;;;;;3.00;3.00;;;;;16.82;66.81;100949.97;5059854;28;45565;-85
2021/10/02 08:35:10;;;;;;;;;2.50;2.00;;;;;16.83;67.11;100943.72;5060370;28;45453;-85
2021/10/02 08:37:36;;;;;;;;;4.00;3.00;;;;;16.83;66.77;100941.06;5057322;28;45508;-83
2021/10/02 08:40:04;;;;;;;;;2.50;2.50;;;;;16.88;66.55;100940.81;5060895;28;45436;-85
2021/10/02 08:42:30;;;;;;;;;3.75;3.25;;;;;16.89;66.56;100936.34;5058764;28;46748;-82
2021/10/02 08:44:57;;;;;;;;;2.50;2.50;;;;;16.91;66.61;100943.28;5052232;28;45434;-82
2021/10/02 08:47:23;;;;;;;;;1.25;1.25;;;;;16.85;66.70;100931.22;5052035;28;45457;-81
2021/10/02 08:49:50;;;;;;;;;4.25;2.75;;;;;16.86;66.35;100932.06;5052811;28;45445;-81
2021/10/02 08:52:19;;;;;;;;;2.25;1.50;;;;;16.86;66.26;100929.41;5052483;28;45436;-81
2021/10/02 08:54:48;;;;;;;;;2.50;2.00;;;;;16.85;66.40;100917.06;5059142;28;45218;-81
2021/10/02 08:57:17;;;;;;;;;2.25;2.25;;;;;16.91;66.47;100929.16;5054637;28;45382;-81
2021/10/02 08:59:43;;;;;;;;;5.50;3.00;;;;;16.92;66.11;100920.22;5053095;28;45557;-80
2021/10/02 09:02:09;;;;;;;;;3.25;2.50;;;;;16.95;66.29;100928.03;5053700;28;46682;-81
2021/10/02 09:04:36;;;;;;;;;5.00;2.75;;;;;16.93;66.00;100919.31;5057853;28;45244;-80
2021/10/02 09:07:03;;;;;;;;;3.50;2.25;;;;;16.96;65.55;100919.13;5049346;28;45473;-81
2021/10/02 09:09:29;;;;;;;;;3.25;1.50;;;;;16.96;65.84;100911.16;5062168;28;45352;-81
2021/10/02 09:11:55;;;;;;;;;5.25;5.00;;;;;16.93;66.10;100896.28;5056677;28;46224;-81
2021/10/02 09:14:20;;;;;;;;;5.00;4.00;;;;;16.88;65.87;100898.34;5054202;28;45405;-81
2021/10/02 09:16:46;;;;;;;;;5.50;3.00;;;;;16.87;65.87;100896.59;5049219;28;45351;-81
2021/10/02 09:19:11;;;;;;;;;4.50;3.00;;;;;16.85;66.13;100899.34;5061968;28;45306;-81
2021/10/02 09:21:53;;;;;;;;;3.50;2.50;;;;;16.85;65.76;100890.53;5049477;28;45392;-81
2021/10/02 09:24:24;;;;;;;;;5.00;5.00;;;;;16.87;66.09;100892.16;5062104;28;45382;-83
2021/10/02 09:26:49;;;;;;;;;4.00;4.00;;;;;16.82;65.89;100870.31;5050738;28;45275;-81
2021/10/02 09:29:16;;;;;;;;;4.25;2.50;;;;;16.89;66.05;100867.34;5061899;28;45372;-81
2021/10/02 09:31:41;;;;;;;;;3.25;3.25;;;;;16.91;66.12;100865.44;5057289;28;45372;-81
2021/10/02 09:34:20;;;;;;;;;4.50;3.00;;;;;16.96;66.11;100852.75;5061916;28;45225;-81
2021/10/02 09:36:46;;;;;;;;;3.75;2.75;;;;;16.96;65.92;100844.78;5051248;28;45339;-81
2021/10/02 09:39:11;;;;;;;;;3.50;2.75;;;;;16.99;65.83;100839.28;5041998;28;46275;-81
2021/10/02 09:41:50;;;;;;;;;4.75;3.00;;;;;17.04;65.85;100833.72;5048495;28;45370;-81
2021/10/02 09:44:25;;;;;;;;;5.75;4.25;;;;;17.04;65.96;100818.63;5061569;28;45500;-81
2021/10/02 09:46:52;;;;;;;;;3.75;3.75;;;;;17.06;65.90;100816.72;5060354;28;45268;-82
2021/10/02 09:49:18;;;;;;;;;4.00;2.50;;;;;17.05;64.73;100804.41;5053278;28;45540;-82
2021/10/02 09:51:45;;;;;;;;;3.25;2.25;;;;;16.99;65.52;100792.34;5047987;28;45496;-83
2021/10/02 09:54:37;;;;;;;;;4.75;2.75;;;;;17.12;65.50;100809.34;5061852;28;45470;-83
2021/10/02 09:57:20;;;;;;;;;2.00;2.00;;;;;17.15;65.48;100790.59;5060104;28;45342;-83
2021/10/02 09:59:46;;;;;;;;;2.75;2.25;;;;;17.25;65.06;100775.84;5046997;28;45450;-82
2021/10/02 10:02:17;;;;;;;;;5.00;3.25;;;;;17.30;64.83;100765.78;5061357;28;46243;-84
2021/10/02 10:04:53;;;;;;;;;3.00;1.00;;;;;17.37;64.72;100747.66;5060525;28;45283;-83
2021/10/02 10:07:21;;;;;;;;;5.00;4.00;;;;;17.47;64.09;100749.75;5059304;28;45269;-83
2021/10/02 10:10:09;;;;;;;;;5.25;4.00;;;;;17.51;64.00;100744.13;5061608;28;45253;-83
2021/10/02 10:12:36;;;;;;;;;3.00;3.00;;;;;17.57;64.13;100731.41;5060914;28;45472;-82
2021/10/02 10:15:03;;;;;;;;;3.00;3.00;;;;;17.62;63.63;100721.34;5062290;28;45611;-83
2021/10/02 10:17:30;;;;;;;;;3.25;3.25;;;;;17.65;63.21;100707.88;5048510;28;45446;-83
2021/10/02 10:20:07;;;;;;;;;1.00;0.00;;;;;17.72;63.64;100705.69;5029995;28;46230;-82
2021/10/02 10:22:33;;;;;;;;;2.50;1.50;;;;;17.77;63.11;100715.06;5047654;28;45425;-89
2021/10/02 10:25:05;;;;;;;;;4.25;3.25;;;;;17.77;62.91;100703.59;5053780;28;45339;-87
2021/10/02 10:27:42;;;;;;;;;4.75;3.00;;;;;17.80;62.88;100681.28;5045675;28;45469;-87
2021/10/02 10:30:13;;;;;;;;;2.25;2.00;;;;;17.85;63.14;100687.16;5042866;28;46299;-87
2021/10/02 10:32:54;;;;;;;;;4.50;3.00;;;;;17.85;62.19;100669.34;5044923;28;47339;-87
2021/10/02 10:35:20;;;;;;;;;2.50;2.00;;;;;17.85;62.20;100669.34;5037854;28;46008;-86
2021/10/02 10:37:46;;;;;;;;;2.50;2.50;;;;;17.84;61.88;100673.00;5056628;28;45397;-86
2021/10/02 10:40:11;;;;;;;;;2.00;2.00;;;;;17.88;61.83;100673.63;5061000;28;45343;-85
2021/10/02 10:42:37;;;;;;;;;3.00;1.25;;;;;17.85;61.55;100664.03;5059412;28;46259;-85
2021/10/02 10:45:03;;;;;;;;;1.00;1.00;;;;;17.88;61.29;100671.81;5041286;28;45267;-85
2021/10/02 10:47:31;;;;;;;;;1.00;1.00;;;;;17.88;61.89;100679.81;5041423;28;45429;-86
2021/10/02 10:49:56;;;;;;;;;2.75;2.00;;;;;17.90;61.06;100678.88;5040928;28;47450;-86
2021/10/02 10:52:23;;;;;;;;;1.25;1.00;;;;;17.88;60.92;100679.81;5060357;28;45417;-86
2021/10/02 10:54:53;;;;;;;;;3.00;1.25;;;;;17.90;61.07;100671.75;5060328;28;45386;-87
2021/10/02 10:57:37;;;;;;;;;3.00;1.75;;;;;17.90;60.52;100666.44;5046757;28;45314;-86
2021/10/02 11:00:12;;;;;;;;;2.25;0.25;;;;;17.90;60.40;100650.47;5032467;28;46122;-87
2021/10/02 11:02:51;;;;;;;;;3.75;2.00;;;;;17.91;61.16;100662.81;5059763;28;46166;-86
2021/10/02 11:05:46;;;;;;;;;1.75;1.75;;;;;17.90;60.69;100642.50;5060457;28;45255;-86
2021/10/02 11:08:16;;;;;;;;;2.00;2.00;;;;;17.91;60.84;100636.22;5031377;28;45504;-86
2021/10/02 11:10:42;;;;;;;;;2.75;2.00;;;;;17.92;61.04;100626.44;5042264;28;46359;-87
2021/10/02 11:13:40;;;;;;;;;3.25;2.00;;;;;17.89;60.91;100624.84;5051658;28;46514;-86
2021/10/02 11:16:39;;;;;;;;;4.75;2.25;;;;;17.94;61.70;100625.38;5041884;28;45277;-87
2021/10/02 11:19:38;;;;;;;;;4.00;2.50;;;;;17.87;60.85;100613.44;5026275;28;45482;-83
2021/10/02 11:22:53;;;;;;;;;3.50;2.00;;;;;17.90;61.07;100612.41;5050090;28;45462;-81
2021/10/02 11:25:22;;;;;;;;;4.50;2.75;;;;;17.86;62.14;100603.75;5013481;28;45956;-83
2021/10/02 11:27:47;;;;;;;;;2.75;2.75;;;;;17.91;61.54;100604.31;5034631;28;45809;-83
2021/10/02 11:30:16;;;;;;;;;3.50;2.25;;;;;17.90;61.68;100604.44;5051664;28;45391;-82
2021/10/02 11:32:42;;;;;;;;;3.75;3.00;;;;;17.89;61.93;100592.94;5047562;28;45398;-85
2021/10/02 11:35:22;;;;;;;;;4.50;3.00;;;;;17.93;62.22;100597.06;5050754;28;47158;-76
2021/10/02 11:37:55;;;;;;;;;5.50;4.00;;;;;17.93;62.77;100585.59;5069424;28;45527;-77
2021/10/02 11:40:36;;;;;;;;;1.75;1.75;;;;;18.00;62.23;100576.28;5058664;28;45368;-76
2021/10/02 11:43:18;;;;;;;;;3.25;3.25;;;;;18.03;62.63;100560.09;5047770;28;45538;-76
2021/10/02 11:45:46;;;;;;;;;4.50;3.00;;;;;18.11;63.16;100559.56;5055046;28;46407;-76
2021/10/02 11:48:19;;;;;;;;;4.00;2.75;;;;;18.09;62.11;100537.56;5039009;28;46584;-76
2021/10/02 11:51:06;;;;;;;;;3.00;3.00;;;;;18.06;63.23;100527.13;5040036;28;45363;-76
2021/10/02 11:54:10;;;;;;;;;4.50;3.50;;;;;18.03;62.55;100522.84;5054463;28;45371;-76
2021/10/02 11:56:36;;;;;;;;;2.00;2.00;;;;;17.95;62.25;100520.72;5053203;28;45589;-76
2021/10/02 11:59:04;;;;;;;;;1.25;1.25;;;;;17.88;62.68;100525.59;5057973;28;45655;-75
2021/10/02 12:01:33;;;;;;;;;3.75;2.50;;;;;17.88;62.61;100500.81;5059889;28;45294;-76
2021/10/02 12:04:12;;;;;;;;;2.00;2.00;;;;;17.82;62.75;100490.63;5033257;28;45493;-76
2021/10/02 12:06:40;;;;;;;;;2.25;1.75;;;;;17.83;63.00;100492.34;5054601;28;45442;-76
2021/10/02 12:09:10;;;;;;;;;4.25;2.50;;;;;17.79;62.68;100482.84;5059903;28;45376;-76
2021/10/02 12:11:53;;;;;;;;;2.00;2.00;;;;;17.80;63.60;100474.78;5059529;28;45339;-76
2021/10/02 12:14:20;;;;;;;;;4.00;4.00;;;;;17.78;62.88;100455.41;5048998;28;45473;-77
2021/10/02 12:17:02;;;;;;;;;8.75;5.75;;;;;17.77;63.41;100459.91;5055621;28;45449;-77
2021/10/02 12:19:29;;;;;;;;;6.00;3.50;;;;;17.75;63.68;100451.16;5059643;28;45253;-76
2021/10/02 12:22:06;;;;;;;;;3.00;3.00;;;;;17.77;63.45;100465.22;5028689;28;45521;-77
2021/10/02 12:24:37;;;;;;;;;2.50;2.00;;;;;17.72;64.19;100454.03;5047471;28;45517;-76
2021/10/02 12:27:04;;;;;;;;;3.00;2.00;;;;;17.82;64.13;100461.38;5058697;28;46378;-76
2021/10/02 12:29:31;;;;;;;;;3.50;2.75;;;;;17.86;64.01;100446.91;5059414;28;45390;-76
2021/10/02 12:31:58;;;;;;;;;4.50;3.00;;;;;17.89;63.84;100441.41;5046222;28;45332;-76
2021/10/02 12:34:25;;;;;;;;;3.00;2.50;;;;;17.96;63.66;100453.31;5059154;28;45286;-76
2021/10/02 12:36:56;;;;;;;;;3.00;3.00;;;;;17.99;64.06;100447.78;5052585;28;45694;-76
2021/10/02 12:39:45;;;;;;;;;4.75;4.00;;;;;17.98;63.81;100438.09;5053690;28;45427;-76
2021/10/02 12:42:13;;;;;;;;;3.50;2.25;;;;;17.99;64.09;100447.78;5058244;28;45424;-77
2021/10/02 12:44:44;;;;;;;;;5.75;3.50;;;;;17.94;64.34;100441.06;5059182;28;45473;-76
2021/10/02 12:47:10;;;;;;;;;3.00;2.00;;;;;17.89;64.01;100446.72;5050568;28;46493;-76
2021/10/02 12:49:57;;;;;;;;;3.00;3.00;;;;;18.02;64.50;100454.69;5036411;28;45727;-76
2021/10/02 12:52:23;;;;;;;;;2.75;2.75;;;;;18.01;64.05;100445.00;5057412;28;45330;-76
2021/10/02 12:54:51;;;;;;;;;5.50;3.75;;;;;18.04;63.76;100438.63;5058547;28;45414;-75
2021/10/02 12:57:34;;;;;;;;;3.75;3.50;;;;;18.03;63.78;100428.94;5039077;28;47362;-76
2021/10/02 13:00:01;;;;;;;;;4.00;3.00;;;;;18.00;63.67;100425.53;5058925;28;45307;-76
2021/10/02 13:02:30;;;;;;;;;2.75;2.75;;;;;17.95;63.83;100403.72;5045541;28;45433;-76
2021/10/02 13:04:57;;;;;;;;;3.25;2.75;;;;;17.94;64.00;100396.72;5058582;28;45524;-76
2021/10/02 13:07:29;;;;;;;;;2.50;2.50;;;;;17.97;63.38;100390.34;5052799;28;46123;-76
2021/10/02 13:10:00;;;;;;;;;2.25;2.25;;;;;17.92;63.31;100368.56;5045907;28;45469;-76
2021/10/02 13:12:33;;;;;;;;;3.00;3.00;;;;;18.00;63.79;100382.16;5056499;28;45300;-76
2021/10/02 13:15:00;;;;;;;;;2.25;2.25;;;;;17.99;63.48;100368.00;5072786;28;45395;-76
2021/10/02 13:17:26;;;;;;;;;4.00;3.00;;;;;18.02;63.65;100360.78;5061602;28;45481;-76
2021/10/02 13:20:07;;;;;;;;;4.00;2.75;;;;;18.05;63.99;100341.97;5048614;28;45885;-76
2021/10/02 13:22:48;;;;;;;;;4.25;2.00;;;;;18.06;64.11;100339.16;5046350;28;45497;-76
2021/10/02 13:25:20;;;;;;;;;5.00;3.00;;;;;18.05;64.28;100339.28;5053855;28;45418;-76
2021/10/02 13:27:47;;;;;;;;;4.00;2.25;;;;;18.04;63.46;100326.94;5055931;28;46150;-76
2021/10/02 13:30:16;;;;;;;;;2.75;2.00;;;;;18.08;63.75;100326.63;5060738;28;45532;-76
2021/10/02 13:32:57;;;;;;;;;2.00;2.00;;;;;18.03;63.28;100304.81;5060650;28;45212;-76
2021/10/02 13:35:24;;;;;;;;;2.25;2.00;;;;;18.09;63.75;100316.84;5042029;28;45374;-76
2021/10/02 13:37:49;;;;;;;;;2.00;2.00;;;;;18.09;63.63;100311.50;5040855;28;47704;-75
2021/10/02 13:40:36;;;;;;;;;3.00;3.00;;;;;18.08;64.03;100288.53;5035810;28;45252;-75
2021/10/02 13:43:04;;;;;;;;;1.75;1.75;;;;;18.07;63.85;100281.53;5061348;28;45568;-76
2021/10/02 13:45:35;;;;;;;;;2.75;2.75;;;;;18.05;64.13;100265.66;5060847;28;45327;-76
2021/10/02 13:48:07;;;;;;;;;2.00;1.00;;;;;18.06;64.01;100250.56;5043557;28;45437;-76
2021/10/02 13:50:34;;;;;;;;;3.00;3.00;;;;;18.05;63.51;100267.50;5059660;28;45711;-76
2021/10/02 13:52:59;;;;;;;;;2.00;1.00;;;;;18.07;64.37;100257.59;5061991;28;45276;-76
2021/10/02 13:55:25;;;;;;;;;4.00;4.00;;;;;18.02;64.91;100233.16;5052213;28;45701;-76
2021/10/02 13:57:51;;;;;;;;;2.00;2.00;;;;;17.99;63.96;100251.03;5052824;28;45271;-76
2021/10/02 14:00:17;;;;;;;;;3.00;3.00;;;;;18.02;64.35;100241.13;5057970;28;45520;-76
2021/10/02 14:02:43;;;;;;;;;4.00;2.50;;;;;18.06;64.75;100245.25;5058695;28;45542;-76
2021/10/02 14:05:09;;;;;;;;;4.50;3.00;;;;;17.99;65.25;100221.78;5058535;28;45327;-76
2021/10/02 14:07:35;;;;;;;;;2.75;2.00;;;;;17.98;65.87;100212.09;5061259;28;46204;-76
2021/10/02 14:10:00;;;;;;;;;3.75;2.75;;;;;18.01;64.67;100224.31;5060719;28;46164;-76
2021/10/02 14:12:26;;;;;;;;;3.00;3.00;;;;;17.98;64.71;100212.09;5048328;28;45345;-76
2021/10/02 14:14:51;;;;;;;;;2.00;1.75;;;;;17.97;64.65;100210.41;5050570;28;45890;-76
2021/10/02 14:17:19;;;;;;;;;4.50;2.50;;;;;17.96;64.57;100198.06;5049531;28;47065;-76
2021/10/02 14:19:44;;;;;;;;;4.25;3.75;;;;;17.97;66.05;100199.78;5057955;28;45531;-76
2021/10/02 14:22:10;;;;;;;;;4.00;3.00;;;;;17.99;65.14;100203.16;5048992;28;45374;-76